Aérodrome :
LOGIN :

S'inscrire | Disclaimer

   EN    FR    IT 

 










Légende :    VFR   VFR Marginal   IFR   IFR Intensif   IFR Très Intensif
Visi : 
Plafond : 
>= 8 km
>= 3000ft
5 à 8 km
1000 à 3000 ft
1500m à 5 km
500 à 1000 ft
800 à 1500m
200 à 500 ft
< 800m
< 200 ft
Symboles :   Orages  Brouillard  Fortes neiges  Fortes précipitations  Vent > 20 kt
SIGMETs :   Divers  Orages  Givrage  Turbulence  Onde Orograph.  Cendres Volcan.






- Altitude de l'aérodrome : 65 ft
- Code IATA : PMO


LICJ - Palermo Punta Raisi

DERNIER METAR :
  • 282250Z 21007KT CAVOK 20/12 Q1015

METARs EXPIRÉS :
  • 282220Z 21007KT CAVOK 20/13 Q1015
  • 282150Z 21007KT CAVOK 20/14 Q1015
  • 282120Z 20004KT CAVOK 21/13 Q1015
  • 282050Z 21003KT CAVOK 21/13 Q1015
  • 282020Z 19004KT CAVOK 21/14 Q1015
  • 281950Z 07007KT CAVOK 21/11 Q1015
  • 281920Z 06007KT CAVOK 22/13 Q1014
  • 281850Z 05008KT CAVOK 22/14 Q1014
  • 281820Z 04007KT CAVOK 22/16 Q1014
  • 281750Z 03007KT CAVOK 22/15 Q1014

TAF TAF LICJ
Valide du 28 à 18h jusqu'au 29 à 18h UTC


281700Z 2818/2918 VRB05KT 9999 FEW030
BECMG 2908/2910 02010KT
BECMG 2916/2918 VRB05KT



MET'MAP, la Météo Aéronautique d'un coup d'oeil ! - Copyright ORBIFLY Décembre 2007 - Disclaimer

ORBIFLY MET'MAP TEAM :

Programmation & Développement : Alexandra Zaïnal
Sur une idée originale de : Baudouin d'Aumeries
Soutien technique & logistique : Manuel Goepfert
Assistance : Marc-Olivier Méhu




SOURCES & CREDITS :

   NOAA